LPPR/OPO METAR and TAF weather

Enter ICAO airport designator
Station Type Date Time Source
LPPR METAR 2019/06/17 07:00 UTC NOAA

LPPR 170700Z 18003KT 9999 FEW012 15/14 Q1017


Station Type Date Time Source
LPPR Decoded METAR 2019/06/17 07:00 UTC NOAA

Porto / Pedras Rubras, Portugal (LPPR) 41-14N 008-41W 77M
Jun 17, 2019 - 03:00 AM EDT / 2019.06.17 0700 UTC
Wind: from the S (180 degrees) at 3 MPH (3 KT):0
Visibility: greater than 7 mile(s):0
Sky conditions: mostly clear
Temperature: 59 F (15 C)
Dew Point: 57 F (14 C)
Relative Humidity: 93%
Pressure (altimeter): 30.03 in. Hg (1017 hPa)
ob: LPPR 170700Z 18003KT 9999 FEW012 15/14 Q1017
cycle: 7

Station Type Date Time Source
LPPR TAF 2019/06/17 06:18 UTC NOAA

TAF LPPR 170500Z 1706/1806 VRB03KT 9999 FEW015 PROB30
TEMPO 1706/1708 5000 BR BKN004
BECMG 1708/1710 23007KT
BECMG 1712/1715 27010KT CAVOK
BECMG 1719/1721 VRB03KT
BECMG 1802/1805 18015KT 9999 SCT012 BKN025

Example: see airport list